sensor_id;sensor_type;location;lat;lon;timestamp;P1;durP1;ratioP1;P2;durP2;ratioP2
5898;SDS011;2975;50.956;6.962;2022-12-07T00:01:06;25.63;;;14.67;;
5898;SDS011;2975;50.956;6.962;2022-12-07T00:03:40;25.30;;;15.10;;
5898;SDS011;2975;50.956;6.962;2022-12-07T00:06:07;26.43;;;15.27;;
5898;SDS011;2975;50.956;6.962;2022-12-07T00:08:35;24.13;;;15.20;;
5898;SDS011;2975;50.956;6.962;2022-12-07T00:11:02;27.30;;;15.67;;
5898;SDS011;2975;50.956;6.962;2022-12-07T00:13:28;24.23;;;16.30;;
5898;SDS011;2975;50.956;6.962;2022-12-07T00:15:54;24.33;;;15.10;;
5898;SDS011;2975;50.956;6.962;2022-12-07T00:18:20;24.10;;;14.17;;
5898;SDS011;2975;50.956;6.962;2022-12-07T00:20:45;22.27;;;14.13;;
5898;SDS011;2975;50.956;6.962;2022-12-07T00:23:11;25.43;;;15.40;;
5898;SDS011;2975;50.956;6.962;2022-12-07T00:25:37;25.60;;;15.30;;
5898;SDS011;2975;50.956;6.962;2022-12-07T00:28:02;22.90;;;14.13;;
5898;SDS011;2975;50.956;6.962;2022-12-07T00:30:28;20.97;;;13.73;;
5898;SDS011;2975;50.956;6.962;2022-12-07T00:32:54;20.73;;;14.00;;
5898;SDS011;2975;50.956;6.962;2022-12-07T00:35:19;24.60;;;15.07;;
5898;SDS011;2975;50.956;6.962;2022-12-07T00:37:45;25.30;;;14.23;;
5898;SDS011;2975;50.956;6.962;2022-12-07T00:40:10;22.37;;;14.63;;
5898;SDS011;2975;50.956;6.962;2022-12-07T00:42:36;23.60;;;14.27;;
5898;SDS011;2975;50.956;6.962;2022-12-07T00:45:02;23.67;;;15.20;;
5898;SDS011;2975;50.956;6.962;2022-12-07T00:47:28;23.87;;;15.00;;
5898;SDS011;2975;50.956;6.962;2022-12-07T00:49:54;21.37;;;14.70;;
5898;SDS011;2975;50.956;6.962;2022-12-07T00:52:19;21.43;;;15.00;;
5898;SDS011;2975;50.956;6.962;2022-12-07T00:54:45;26.37;;;14.83;;
5898;SDS011;2975;50.956;6.962;2022-12-07T00:57:10;21.60;;;14.67;;
5898;SDS011;2975;50.956;6.962;2022-12-07T00:59:36;24.60;;;13.50;;
5898;SDS011;2975;50.956;6.962;2022-12-07T01:02:01;25.77;;;13.97;;
5898;SDS011;2975;50.956;6.962;2022-12-07T01:04:27;21.90;;;14.70;;
5898;SDS011;2975;50.956;6.962;2022-12-07T01:06:53;20.73;;;14.37;;
5898;SDS011;2975;50.956;6.962;2022-12-07T01:09:18;27.40;;;14.73;;
5898;SDS011;2975;50.956;6.962;2022-12-07T01:11:44;22.10;;;15.17;;
5898;SDS011;2975;50.956;6.962;2022-12-07T01:14:09;27.43;;;14.97;;
5898;SDS011;2975;50.956;6.962;2022-12-07T01:16:35;24.73;;;14.70;;
5898;SDS011;2975;50.956;6.962;2022-12-07T01:19:01;24.00;;;14.60;;
5898;SDS011;2975;50.956;6.962;2022-12-07T01:21:31;27.60;;;14.60;;
5898;SDS011;2975;50.956;6.962;2022-12-07T01:24:00;20.23;;;13.83;;
5898;SDS011;2975;50.956;6.962;2022-12-07T01:26:27;21.77;;;15.73;;
5898;SDS011;2975;50.956;6.962;2022-12-07T01:28:52;25.43;;;15.17;;
5898;SDS011;2975;50.956;6.962;2022-12-07T01:31:21;27.30;;;14.53;;
5898;SDS011;2975;50.956;6.962;2022-12-07T01:33:49;22.23;;;14.70;;
5898;SDS011;2975;50.956;6.962;2022-12-07T01:36:18;26.53;;;15.50;;
5898;SDS011;2975;50.956;6.962;2022-12-07T01:38:46;27.43;;;15.07;;
5898;SDS011;2975;50.956;6.962;2022-12-07T01:41:14;24.80;;;15.33;;
5898;SDS011;2975;50.956;6.962;2022-12-07T01:46:30;24.63;;;15.47;;
5898;SDS011;2975;50.956;6.962;2022-12-07T01:48:56;24.10;;;15.17;;
5898;SDS011;2975;50.956;6.962;2022-12-07T01:51:22;26.63;;;16.30;;
5898;SDS011;2975;50.956;6.962;2022-12-07T01:53:47;27.63;;;17.07;;
5898;SDS011;2975;50.956;6.962;2022-12-07T01:56:15;25.60;;;17.10;;
5898;SDS011;2975;50.956;6.962;2022-12-07T01:58:44;24.40;;;16.20;;
5898;SDS011;2975;50.956;6.962;2022-12-07T02:01:10;25.80;;;16.77;;
5898;SDS011;2975;50.956;6.962;2022-12-07T02:03:39;26.00;;;16.83;;
5898;SDS011;2975;50.956;6.962;2022-12-07T02:06:07;25.70;;;17.43;;
5898;SDS011;2975;50.956;6.962;2022-12-07T02:08:35;26.50;;;16.27;;
5898;SDS011;2975;50.956;6.962;2022-12-07T02:11:02;26.53;;;15.60;;
5898;SDS011;2975;50.956;6.962;2022-12-07T02:13:30;25.57;;;16.50;;
5898;SDS011;2975;50.956;6.962;2022-12-07T02:29:45;23.37;;;16.03;;
5898;SDS011;2975;50.956;6.962;2022-12-07T02:34:56;26.70;;;15.87;;
5898;SDS011;2975;50.956;6.962;2022-12-07T02:40:09;23.47;;;15.90;;
5898;SDS011;2975;50.956;6.962;2022-12-07T02:43:02;27.57;;;16.20;;
5898;SDS011;2975;50.956;6.962;2022-12-07T02:45:37;24.90;;;15.10;;
5898;SDS011;2975;50.956;6.962;2022-12-07T02:48:05;26.57;;;15.30;;
5898;SDS011;2975;50.956;6.962;2022-12-07T02:50:32;24.43;;;16.93;;
5898;SDS011;2975;50.956;6.962;2022-12-07T02:52:58;28.43;;;16.43;;
5898;SDS011;2975;50.956;6.962;2022-12-07T02:55:26;26.83;;;16.87;;
5898;SDS011;2975;50.956;6.962;2022-12-07T02:58:01;24.60;;;16.50;;
5898;SDS011;2975;50.956;6.962;2022-12-07T03:00:35;26.90;;;16.37;;
5898;SDS011;2975;50.956;6.962;2022-12-07T03:03:10;25.53;;;15.73;;
5898;SDS011;2975;50.956;6.962;2022-12-07T03:05:45;29.97;;;16.50;;
5898;SDS011;2975;50.956;6.962;2022-12-07T03:10:58;25.43;;;17.10;;
5898;SDS011;2975;50.956;6.962;2022-12-07T03:13:37;27.93;;;17.33;;
5898;SDS011;2975;50.956;6.962;2022-12-07T03:19:01;24.13;;;16.33;;
5898;SDS011;2975;50.956;6.962;2022-12-07T03:21:40;29.67;;;18.37;;
5898;SDS011;2975;50.956;6.962;2022-12-07T03:24:10;28.43;;;17.20;;
5898;SDS011;2975;50.956;6.962;2022-12-07T03:26:41;28.37;;;17.37;;
5898;SDS011;2975;50.956;6.962;2022-12-07T03:29:22;26.17;;;17.00;;
5898;SDS011;2975;50.956;6.962;2022-12-07T03:31:54;29.60;;;16.93;;
5898;SDS011;2975;50.956;6.962;2022-12-07T03:34:34;28.00;;;17.73;;
5898;SDS011;2975;50.956;6.962;2022-12-07T03:37:14;27.47;;;17.50;;
5898;SDS011;2975;50.956;6.962;2022-12-07T03:42:40;26.73;;;17.77;;
5898;SDS011;2975;50.956;6.962;2022-12-07T03:45:06;28.87;;;17.60;;
5898;SDS011;2975;50.956;6.962;2022-12-07T03:47:34;28.27;;;18.20;;
5898;SDS011;2975;50.956;6.962;2022-12-07T03:50:13;31.07;;;18.70;;
5898;SDS011;2975;50.956;6.962;2022-12-07T03:53:30;27.70;;;17.87;;
5898;SDS011;2975;50.956;6.962;2022-12-07T03:55:41;28.83;;;17.93;;
5898;SDS011;2975;50.956;6.962;2022-12-07T03:58:11;31.43;;;19.13;;
5898;SDS011;2975;50.956;6.962;2022-12-07T04:00:40;30.90;;;18.43;;
5898;SDS011;2975;50.956;6.962;2022-12-07T04:03:07;27.87;;;18.80;;
5898;SDS011;2975;50.956;6.962;2022-12-07T04:05:33;28.83;;;19.20;;
5898;SDS011;2975;50.956;6.962;2022-12-07T04:07:59;30.10;;;19.83;;
5898;SDS011;2975;50.956;6.962;2022-12-07T04:10:25;29.60;;;19.07;;
5898;SDS011;2975;50.956;6.962;2022-12-07T04:12:51;29.30;;;18.63;;
5898;SDS011;2975;50.956;6.962;2022-12-07T04:15:17;29.87;;;19.93;;
5898;SDS011;2975;50.956;6.962;2022-12-07T04:17:42;34.17;;;18.80;;
5898;SDS011;2975;50.956;6.962;2022-12-07T04:20:08;33.47;;;19.57;;
5898;SDS011;2975;50.956;6.962;2022-12-07T04:22:35;34.53;;;19.93;;
5898;SDS011;2975;50.956;6.962;2022-12-07T04:25:00;32.50;;;18.47;;
5898;SDS011;2975;50.956;6.962;2022-12-07T04:27:26;32.40;;;18.00;;
5898;SDS011;2975;50.956;6.962;2022-12-07T04:29:52;33.07;;;18.40;;
5898;SDS011;2975;50.956;6.962;2022-12-07T04:32:20;34.23;;;19.47;;
5898;SDS011;2975;50.956;6.962;2022-12-07T04:34:45;30.90;;;19.00;;
5898;SDS011;2975;50.956;6.962;2022-12-07T04:37:11;29.67;;;18.57;;
5898;SDS011;2975;50.956;6.962;2022-12-07T04:39:36;32.23;;;18.00;;
5898;SDS011;2975;50.956;6.962;2022-12-07T04:42:02;31.70;;;18.43;;
5898;SDS011;2975;50.956;6.962;2022-12-07T04:44:28;30.30;;;18.80;;
5898;SDS011;2975;50.956;6.962;2022-12-07T04:46:55;28.43;;;17.27;;
5898;SDS011;2975;50.956;6.962;2022-12-07T04:49:22;30.67;;;18.93;;
5898;SDS011;2975;50.956;6.962;2022-12-07T04:51:47;31.73;;;18.00;;
5898;SDS011;2975;50.956;6.962;2022-12-07T04:54:14;30.13;;;18.63;;
5898;SDS011;2975;50.956;6.962;2022-12-07T04:56:40;30.13;;;16.60;;
5898;SDS011;2975;50.956;6.962;2022-12-07T04:59:06;27.87;;;17.67;;
5898;SDS011;2975;50.956;6.962;2022-12-07T05:01:32;31.30;;;17.10;;
5898;SDS011;2975;50.956;6.962;2022-12-07T05:03:58;29.00;;;16.43;;
5898;SDS011;2975;50.956;6.962;2022-12-07T05:06:24;31.87;;;18.33;;
5898;SDS011;2975;50.956;6.962;2022-12-07T05:08:50;29.13;;;17.77;;
5898;SDS011;2975;50.956;6.962;2022-12-07T05:11:16;28.57;;;17.40;;
5898;SDS011;2975;50.956;6.962;2022-12-07T05:14:01;33.67;;;18.40;;
5898;SDS011;2975;50.956;6.962;2022-12-07T05:16:31;32.33;;;18.33;;
5898;SDS011;2975;50.956;6.962;2022-12-07T05:18:56;27.30;;;17.53;;
5898;SDS011;2975;50.956;6.962;2022-12-07T05:21:22;29.93;;;17.33;;
5898;SDS011;2975;50.956;6.962;2022-12-07T05:23:48;32.23;;;17.57;;
5898;SDS011;2975;50.956;6.962;2022-12-07T05:26:14;26.53;;;16.97;;
5898;SDS011;2975;50.956;6.962;2022-12-07T05:28:39;27.03;;;17.27;;
5898;SDS011;2975;50.956;6.962;2022-12-07T05:31:05;31.50;;;18.17;;
5898;SDS011;2975;50.956;6.962;2022-12-07T05:33:30;30.13;;;17.33;;
5898;SDS011;2975;50.956;6.962;2022-12-07T05:35:56;30.77;;;18.90;;
5898;SDS011;2975;50.956;6.962;2022-12-07T05:38:21;32.03;;;18.13;;
5898;SDS011;2975;50.956;6.962;2022-12-07T05:40:47;36.87;;;18.50;;
5898;SDS011;2975;50.956;6.962;2022-12-07T05:43:13;31.07;;;17.10;;
5898;SDS011;2975;50.956;6.962;2022-12-07T05:45:38;30.87;;;16.73;;
5898;SDS011;2975;50.956;6.962;2022-12-07T05:48:04;26.40;;;17.17;;
5898;SDS011;2975;50.956;6.962;2022-12-07T05:50:29;31.47;;;17.43;;
5898;SDS011;2975;50.956;6.962;2022-12-07T05:52:55;29.37;;;15.90;;
5898;SDS011;2975;50.956;6.962;2022-12-07T05:55:21;26.30;;;16.50;;
5898;SDS011;2975;50.956;6.962;2022-12-07T05:57:46;26.47;;;15.67;;
5898;SDS011;2975;50.956;6.962;2022-12-07T06:00:31;26.70;;;15.07;;
5898;SDS011;2975;50.956;6.962;2022-12-07T06:02:57;28.23;;;15.33;;
5898;SDS011;2975;50.956;6.962;2022-12-07T06:05:22;27.97;;;16.93;;
5898;SDS011;2975;50.956;6.962;2022-12-07T06:07:48;23.97;;;15.00;;
5898;SDS011;2975;50.956;6.962;2022-12-07T06:10:14;29.93;;;15.90;;
5898;SDS011;2975;50.956;6.962;2022-12-07T06:12:40;23.17;;;14.93;;
5898;SDS011;2975;50.956;6.962;2022-12-07T06:15:08;26.67;;;14.90;;
5898;SDS011;2975;50.956;6.962;2022-12-07T06:17:35;25.70;;;15.77;;
5898;SDS011;2975;50.956;6.962;2022-12-07T06:20:01;23.57;;;15.10;;
5898;SDS011;2975;50.956;6.962;2022-12-07T06:22:27;26.77;;;15.43;;
5898;SDS011;2975;50.956;6.962;2022-12-07T06:24:53;28.80;;;16.10;;
5898;SDS011;2975;50.956;6.962;2022-12-07T06:27:19;28.20;;;16.30;;
5898;SDS011;2975;50.956;6.962;2022-12-07T06:29:44;28.60;;;17.47;;
5898;SDS011;2975;50.956;6.962;2022-12-07T06:32:10;29.10;;;16.30;;
5898;SDS011;2975;50.956;6.962;2022-12-07T06:34:36;28.90;;;16.80;;
5898;SDS011;2975;50.956;6.962;2022-12-07T06:37:02;31.10;;;16.10;;
5898;SDS011;2975;50.956;6.962;2022-12-07T06:39:28;25.97;;;17.23;;
5898;SDS011;2975;50.956;6.962;2022-12-07T06:41:54;27.83;;;17.27;;
5898;SDS011;2975;50.956;6.962;2022-12-07T06:44:20;29.70;;;18.53;;
5898;SDS011;2975;50.956;6.962;2022-12-07T06:46:47;34.67;;;18.90;;
5898;SDS011;2975;50.956;6.962;2022-12-07T06:49:13;28.23;;;17.47;;
5898;SDS011;2975;50.956;6.962;2022-12-07T06:51:39;33.10;;;18.30;;
5898;SDS011;2975;50.956;6.962;2022-12-07T06:54:08;28.47;;;17.23;;
5898;SDS011;2975;50.956;6.962;2022-12-07T06:56:37;27.23;;;17.20;;
5898;SDS011;2975;50.956;6.962;2022-12-07T06:59:03;31.30;;;18.33;;
5898;SDS011;2975;50.956;6.962;2022-12-07T07:01:31;26.93;;;17.23;;
5898;SDS011;2975;50.956;6.962;2022-12-07T07:03:57;29.60;;;17.83;;
5898;SDS011;2975;50.956;6.962;2022-12-07T07:06:23;31.37;;;18.40;;
5898;SDS011;2975;50.956;6.962;2022-12-07T07:08:49;28.67;;;18.27;;
5898;SDS011;2975;50.956;6.962;2022-12-07T07:11:15;25.30;;;16.87;;
5898;SDS011;2975;50.956;6.962;2022-12-07T07:13:40;27.53;;;17.20;;
5898;SDS011;2975;50.956;6.962;2022-12-07T07:16:06;31.70;;;19.10;;
5898;SDS011;2975;50.956;6.962;2022-12-07T07:18:32;29.93;;;18.03;;
5898;SDS011;2975;50.956;6.962;2022-12-07T07:20:58;30.37;;;18.67;;
5898;SDS011;2975;50.956;6.962;2022-12-07T07:23:24;28.43;;;17.90;;
5898;SDS011;2975;50.956;6.962;2022-12-07T07:25:50;28.33;;;16.80;;
5898;SDS011;2975;50.956;6.962;2022-12-07T07:28:16;30.07;;;18.23;;
5898;SDS011;2975;50.956;6.962;2022-12-07T07:30:41;30.00;;;18.50;;
5898;SDS011;2975;50.956;6.962;2022-12-07T07:33:07;28.30;;;17.97;;
5898;SDS011;2975;50.956;6.962;2022-12-07T07:35:34;32.50;;;18.97;;
5898;SDS011;2975;50.956;6.962;2022-12-07T07:38:00;28.30;;;17.53;;
5898;SDS011;2975;50.956;6.962;2022-12-07T07:40:26;34.73;;;19.80;;
5898;SDS011;2975;50.956;6.962;2022-12-07T07:42:54;27.37;;;18.20;;
5898;SDS011;2975;50.956;6.962;2022-12-07T07:45:20;29.33;;;18.57;;
5898;SDS011;2975;50.956;6.962;2022-12-07T07:47:47;31.30;;;18.57;;
5898;SDS011;2975;50.956;6.962;2022-12-07T07:50:13;28.60;;;17.60;;
5898;SDS011;2975;50.956;6.962;2022-12-07T07:52:39;28.77;;;17.43;;
5898;SDS011;2975;50.956;6.962;2022-12-07T07:55:05;27.87;;;17.37;;
5898;SDS011;2975;50.956;6.962;2022-12-07T07:57:33;33.30;;;19.00;;
5898;SDS011;2975;50.956;6.962;2022-12-07T08:00:00;29.73;;;17.50;;
5898;SDS011;2975;50.956;6.962;2022-12-07T08:02:25;26.20;;;16.77;;
5898;SDS011;2975;50.956;6.962;2022-12-07T08:04:51;32.07;;;18.27;;
5898;SDS011;2975;50.956;6.962;2022-12-07T08:07:16;28.17;;;17.90;;
5898;SDS011;2975;50.956;6.962;2022-12-07T08:09:42;25.53;;;17.70;;
5898;SDS011;2975;50.956;6.962;2022-12-07T08:12:08;27.27;;;17.43;;
5898;SDS011;2975;50.956;6.962;2022-12-07T08:14:34;25.00;;;16.83;;
5898;SDS011;2975;50.956;6.962;2022-12-07T08:16:59;25.70;;;17.10;;
5898;SDS011;2975;50.956;6.962;2022-12-07T08:19:25;29.27;;;16.57;;
5898;SDS011;2975;50.956;6.962;2022-12-07T08:21:51;22.97;;;16.23;;
5898;SDS011;2975;50.956;6.962;2022-12-07T08:24:17;25.80;;;16.27;;
5898;SDS011;2975;50.956;6.962;2022-12-07T08:26:43;27.23;;;16.63;;
5898;SDS011;2975;50.956;6.962;2022-12-07T08:29:09;26.67;;;15.07;;
5898;SDS011;2975;50.956;6.962;2022-12-07T08:31:34;26.77;;;16.97;;
5898;SDS011;2975;50.956;6.962;2022-12-07T08:34:01;22.27;;;14.83;;
5898;SDS011;2975;50.956;6.962;2022-12-07T08:36:26;23.03;;;15.60;;
5898;SDS011;2975;50.956;6.962;2022-12-07T08:38:52;25.47;;;14.53;;
5898;SDS011;2975;50.956;6.962;2022-12-07T08:41:18;23.27;;;14.77;;
5898;SDS011;2975;50.956;6.962;2022-12-07T08:43:43;22.30;;;14.60;;
5898;SDS011;2975;50.956;6.962;2022-12-07T08:46:11;20.63;;;14.03;;
5898;SDS011;2975;50.956;6.962;2022-12-07T08:49:02;24.53;;;14.33;;
5898;SDS011;2975;50.956;6.962;2022-12-07T08:51:28;25.43;;;14.50;;
5898;SDS011;2975;50.956;6.962;2022-12-07T08:53:53;23.60;;;13.50;;
5898;SDS011;2975;50.956;6.962;2022-12-07T08:56:21;19.47;;;12.93;;
5898;SDS011;2975;50.956;6.962;2022-12-07T08:58:47;20.83;;;13.63;;
5898;SDS011;2975;50.956;6.962;2022-12-07T09:01:13;17.30;;;11.70;;
5898;SDS011;2975;50.956;6.962;2022-12-07T09:03:40;18.07;;;11.97;;
5898;SDS011;2975;50.956;6.962;2022-12-07T09:06:05;19.23;;;12.23;;
5898;SDS011;2975;50.956;6.962;2022-12-07T09:08:38;17.73;;;11.83;;
5898;SDS011;2975;50.956;6.962;2022-12-07T09:11:07;17.70;;;11.80;;
5898;SDS011;2975;50.956;6.962;2022-12-07T09:13:32;23.03;;;12.20;;
5898;SDS011;2975;50.956;6.962;2022-12-07T09:15:58;20.03;;;13.07;;
5898;SDS011;2975;50.956;6.962;2022-12-07T09:18:24;16.47;;;11.33;;
5898;SDS011;2975;50.956;6.962;2022-12-07T09:20:49;18.43;;;11.63;;
5898;SDS011;2975;50.956;6.962;2022-12-07T09:23:15;15.63;;;10.70;;
5898;SDS011;2975;50.956;6.962;2022-12-07T09:25:41;16.73;;;10.37;;
5898;SDS011;2975;50.956;6.962;2022-12-07T09:28:07;21.67;;;10.80;;
5898;SDS011;2975;50.956;6.962;2022-12-07T09:30:33;19.63;;;13.10;;
5898;SDS011;2975;50.956;6.962;2022-12-07T09:32:59;15.70;;;10.83;;
5898;SDS011;2975;50.956;6.962;2022-12-07T09:35:24;17.83;;;10.37;;
5898;SDS011;2975;50.956;6.962;2022-12-07T09:37:50;18.20;;;11.03;;
5898;SDS011;2975;50.956;6.962;2022-12-07T09:40:17;16.40;;;10.17;;
5898;SDS011;2975;50.956;6.962;2022-12-07T09:42:47;18.03;;;10.47;;
5898;SDS011;2975;50.956;6.962;2022-12-07T09:45:15;17.53;;;10.40;;
5898;SDS011;2975;50.956;6.962;2022-12-07T09:47:45;19.37;;;10.87;;
5898;SDS011;2975;50.956;6.962;2022-12-07T09:50:32;17.27;;;10.43;;
5898;SDS011;2975;50.956;6.962;2022-12-07T09:53:05;19.60;;;11.13;;
5898;SDS011;2975;50.956;6.962;2022-12-07T09:56:01;19.20;;;11.57;;
5898;SDS011;2975;50.956;6.962;2022-12-07T09:58:27;15.70;;;10.00;;
5898;SDS011;2975;50.956;6.962;2022-12-07T10:01:05;19.03;;;9.97;;
5898;SDS011;2975;50.956;6.962;2022-12-07T10:03:38;19.70;;;10.43;;
5898;SDS011;2975;50.956;6.962;2022-12-07T10:06:07;18.30;;;9.83;;
5898;SDS011;2975;50.956;6.962;2022-12-07T10:08:35;16.70;;;8.83;;
5898;SDS011;2975;50.956;6.962;2022-12-07T10:11:01;18.17;;;9.83;;
5898;SDS011;2975;50.956;6.962;2022-12-07T10:13:42;17.70;;;10.07;;
5898;SDS011;2975;50.956;6.962;2022-12-07T10:19:24;16.50;;;9.40;;
5898;SDS011;2975;50.956;6.962;2022-12-07T10:22:09;14.03;;;7.87;;
5898;SDS011;2975;50.956;6.962;2022-12-07T10:24:40;15.97;;;7.90;;
5898;SDS011;2975;50.956;6.962;2022-12-07T10:27:17;16.80;;;7.93;;
5898;SDS011;2975;50.956;6.962;2022-12-07T10:29:51;13.23;;;7.97;;
5898;SDS011;2975;50.956;6.962;2022-12-07T10:34:43;14.20;;;7.60;;
5898;SDS011;2975;50.956;6.962;2022-12-07T10:47:44;17.70;;;8.80;;
5898;SDS011;2975;50.956;6.962;2022-12-07T10:53:27;17.30;;;8.27;;
5898;SDS011;2975;50.956;6.962;2022-12-07T10:59:38;15.13;;;8.43;;
5898;SDS011;2975;50.956;6.962;2022-12-07T11:15:18;12.67;;;7.43;;
5898;SDS011;2975;50.956;6.962;2022-12-07T11:28:31;13.40;;;7.30;;
5898;SDS011;2975;50.956;6.962;2022-12-07T11:41:47;15.67;;;6.70;;
5898;SDS011;2975;50.956;6.962;2022-12-07T11:52:30;17.13;;;7.33;;
5898;SDS011;2975;50.956;6.962;2022-12-07T11:54:57;13.10;;;7.43;;
5898;SDS011;2975;50.956;6.962;2022-12-07T11:57:27;12.73;;;6.57;;
5898;SDS011;2975;50.956;6.962;2022-12-07T12:00:14;18.27;;;7.43;;
5898;SDS011;2975;50.956;6.962;2022-12-07T12:05:36;17.10;;;7.23;;
5898;SDS011;2975;50.956;6.962;2022-12-07T12:08:21;15.97;;;8.93;;
5898;SDS011;2975;50.956;6.962;2022-12-07T12:14:34;15.13;;;7.57;;
5898;SDS011;2975;50.956;6.962;2022-12-07T12:22:35;16.23;;;8.20;;
5898;SDS011;2975;50.956;6.962;2022-12-07T12:25:19;14.70;;;6.67;;
5898;SDS011;2975;50.956;6.962;2022-12-07T12:27:55;19.07;;;8.03;;
5898;SDS011;2975;50.956;6.962;2022-12-07T12:30:31;13.33;;;7.80;;
5898;SDS011;2975;50.956;6.962;2022-12-07T12:33:03;19.40;;;9.63;;
5898;SDS011;2975;50.956;6.962;2022-12-07T12:35:33;14.67;;;8.13;;
5898;SDS011;2975;50.956;6.962;2022-12-07T12:41:50;13.77;;;7.90;;
5898;SDS011;2975;50.956;6.962;2022-12-07T12:44:03;12.83;;;8.17;;
5898;SDS011;2975;50.956;6.962;2022-12-07T12:51:46;18.50;;;8.57;;
5898;SDS011;2975;50.956;6.962;2022-12-07T12:54:26;13.80;;;8.37;;
5898;SDS011;2975;50.956;6.962;2022-12-07T13:03:00;16.97;;;7.90;;
5898;SDS011;2975;50.956;6.962;2022-12-07T13:13:25;16.37;;;7.87;;
5898;SDS011;2975;50.956;6.962;2022-12-07T13:16:35;18.20;;;7.60;;
5898;SDS011;2975;50.956;6.962;2022-12-07T13:18:40;11.33;;;6.43;;
5898;SDS011;2975;50.956;6.962;2022-12-07T13:23:39;13.40;;;6.67;;
5898;SDS011;2975;50.956;6.962;2022-12-07T13:26:22;13.63;;;7.00;;
5898;SDS011;2975;50.956;6.962;2022-12-07T13:34:01;12.50;;;7.07;;
5898;SDS011;2975;50.956;6.962;2022-12-07T13:36:32;14.10;;;7.73;;
5898;SDS011;2975;50.956;6.962;2022-12-07T13:41:43;14.03;;;7.47;;
5898;SDS011;2975;50.956;6.962;2022-12-07T13:44:09;13.67;;;7.63;;
5898;SDS011;2975;50.956;6.962;2022-12-07T13:46:46;13.57;;;7.00;;
5898;SDS011;2975;50.956;6.962;2022-12-07T13:49:21;16.90;;;7.00;;
5898;SDS011;2975;50.956;6.962;2022-12-07T13:51:48;12.17;;;6.57;;
5898;SDS011;2975;50.956;6.962;2022-12-07T13:54:15;13.43;;;7.30;;
5898;SDS011;2975;50.956;6.962;2022-12-07T13:56:41;12.57;;;6.87;;
5898;SDS011;2975;50.956;6.962;2022-12-07T13:59:25;10.80;;;6.87;;
5898;SDS011;2975;50.956;6.962;2022-12-07T14:01:52;11.83;;;6.87;;
5898;SDS011;2975;50.956;6.962;2022-12-07T14:04:29;15.37;;;6.87;;
5898;SDS011;2975;50.956;6.962;2022-12-07T14:06:59;11.77;;;6.40;;
5898;SDS011;2975;50.956;6.962;2022-12-07T14:09:27;13.17;;;6.93;;
5898;SDS011;2975;50.956;6.962;2022-12-07T14:11:54;14.57;;;6.93;;
5898;SDS011;2975;50.956;6.962;2022-12-07T14:14:22;14.83;;;6.90;;
5898;SDS011;2975;50.956;6.962;2022-12-07T14:19:45;14.40;;;6.60;;
5898;SDS011;2975;50.956;6.962;2022-12-07T14:27:37;12.40;;;6.27;;
5898;SDS011;2975;50.956;6.962;2022-12-07T14:30:03;13.57;;;7.20;;
5898;SDS011;2975;50.956;6.962;2022-12-07T14:32:30;11.60;;;6.43;;
5898;SDS011;2975;50.956;6.962;2022-12-07T14:37:28;10.37;;;7.03;;
5898;SDS011;2975;50.956;6.962;2022-12-07T14:39:54;9.40;;;6.60;;
5898;SDS011;2975;50.956;6.962;2022-12-07T14:42:20;9.97;;;6.77;;
5898;SDS011;2975;50.956;6.962;2022-12-07T14:44:50;10.70;;;6.53;;
5898;SDS011;2975;50.956;6.962;2022-12-07T14:47:15;11.33;;;7.17;;
5898;SDS011;2975;50.956;6.962;2022-12-07T14:49:41;13.93;;;6.63;;
5898;SDS011;2975;50.956;6.962;2022-12-07T14:52:09;15.73;;;8.50;;
5898;SDS011;2975;50.956;6.962;2022-12-07T14:54:40;14.37;;;7.10;;
5898;SDS011;2975;50.956;6.962;2022-12-07T14:57:08;11.77;;;7.07;;
5898;SDS011;2975;50.956;6.962;2022-12-07T14:59:35;11.50;;;6.80;;
5898;SDS011;2975;50.956;6.962;2022-12-07T15:02:00;12.43;;;7.83;;
5898;SDS011;2975;50.956;6.962;2022-12-07T15:04:26;12.40;;;7.50;;
5898;SDS011;2975;50.956;6.962;2022-12-07T15:06:56;15.67;;;7.80;;
5898;SDS011;2975;50.956;6.962;2022-12-07T15:09:23;16.47;;;7.67;;
5898;SDS011;2975;50.956;6.962;2022-12-07T15:11:48;16.53;;;7.70;;
5898;SDS011;2975;50.956;6.962;2022-12-07T15:14:14;11.43;;;7.33;;
5898;SDS011;2975;50.956;6.962;2022-12-07T15:16:40;11.47;;;7.30;;
5898;SDS011;2975;50.956;6.962;2022-12-07T15:19:17;16.50;;;7.17;;
5898;SDS011;2975;50.956;6.962;2022-12-07T15:21:47;19.07;;;7.93;;
5898;SDS011;2975;50.956;6.962;2022-12-07T15:24:13;13.70;;;7.50;;
5898;SDS011;2975;50.956;6.962;2022-12-07T15:26:39;13.30;;;7.27;;
5898;SDS011;2975;50.956;6.962;2022-12-07T15:29:06;12.63;;;6.03;;
5898;SDS011;2975;50.956;6.962;2022-12-07T15:31:32;7.83;;;4.67;;
5898;SDS011;2975;50.956;6.962;2022-12-07T15:33:58;9.60;;;4.87;;
5898;SDS011;2975;50.956;6.962;2022-12-07T15:36:24;5.67;;;4.53;;
5898;SDS011;2975;50.956;6.962;2022-12-07T15:38:52;9.37;;;4.20;;
5898;SDS011;2975;50.956;6.962;2022-12-07T15:41:18;7.83;;;3.60;;
5898;SDS011;2975;50.956;6.962;2022-12-07T15:43:43;8.63;;;4.03;;
5898;SDS011;2975;50.956;6.962;2022-12-07T15:46:29;6.23;;;3.30;;
5898;SDS011;2975;50.956;6.962;2022-12-07T15:48:59;4.63;;;3.10;;
5898;SDS011;2975;50.956;6.962;2022-12-07T15:51:25;5.07;;;2.97;;
5898;SDS011;2975;50.956;6.962;2022-12-07T15:53:51;5.50;;;2.80;;
5898;SDS011;2975;50.956;6.962;2022-12-07T15:56:17;9.87;;;3.03;;
5898;SDS011;2975;50.956;6.962;2022-12-07T15:58:43;6.93;;;3.13;;
5898;SDS011;2975;50.956;6.962;2022-12-07T16:01:12;8.63;;;4.00;;
5898;SDS011;2975;50.956;6.962;2022-12-07T16:03:39;8.03;;;3.97;;
5898;SDS011;2975;50.956;6.962;2022-12-07T16:06:05;4.57;;;3.63;;
5898;SDS011;2975;50.956;6.962;2022-12-07T16:08:31;7.20;;;4.33;;
5898;SDS011;2975;50.956;6.962;2022-12-07T16:10:57;10.67;;;4.97;;
5898;SDS011;2975;50.956;6.962;2022-12-07T16:13:23;8.83;;;5.03;;
5898;SDS011;2975;50.956;6.962;2022-12-07T16:15:48;9.07;;;6.10;;
5898;SDS011;2975;50.956;6.962;2022-12-07T16:18:14;12.80;;;6.27;;
5898;SDS011;2975;50.956;6.962;2022-12-07T16:20:39;12.53;;;6.17;;
5898;SDS011;2975;50.956;6.962;2022-12-07T16:23:05;10.43;;;6.47;;
5898;SDS011;2975;50.956;6.962;2022-12-07T16:25:32;10.73;;;6.33;;
5898;SDS011;2975;50.956;6.962;2022-12-07T16:27:57;12.80;;;7.03;;
5898;SDS011;2975;50.956;6.962;2022-12-07T16:30:23;16.27;;;7.10;;
5898;SDS011;2975;50.956;6.962;2022-12-07T16:32:50;10.33;;;5.70;;
5898;SDS011;2975;50.956;6.962;2022-12-07T16:35:16;10.93;;;6.53;;
5898;SDS011;2975;50.956;6.962;2022-12-07T16:37:42;15.23;;;6.30;;
5898;SDS011;2975;50.956;6.962;2022-12-07T16:40:09;9.57;;;6.93;;
5898;SDS011;2975;50.956;6.962;2022-12-07T16:42:36;11.67;;;6.93;;
5898;SDS011;2975;50.956;6.962;2022-12-07T16:45:02;12.23;;;5.97;;
5898;SDS011;2975;50.956;6.962;2022-12-07T16:47:29;10.27;;;5.93;;
5898;SDS011;2975;50.956;6.962;2022-12-07T16:49:55;9.43;;;5.03;;
5898;SDS011;2975;50.956;6.962;2022-12-07T16:52:21;6.40;;;4.90;;
5898;SDS011;2975;50.956;6.962;2022-12-07T16:54:47;8.07;;;4.33;;
5898;SDS011;2975;50.956;6.962;2022-12-07T16:57:13;6.27;;;4.37;;
5898;SDS011;2975;50.956;6.962;2022-12-07T16:59:40;6.40;;;4.50;;
5898;SDS011;2975;50.956;6.962;2022-12-07T17:02:06;8.13;;;4.70;;
5898;SDS011;2975;50.956;6.962;2022-12-07T17:04:33;6.27;;;4.33;;
5898;SDS011;2975;50.956;6.962;2022-12-07T17:06:59;5.10;;;3.93;;
5898;SDS011;2975;50.956;6.962;2022-12-07T17:09:25;7.47;;;4.03;;
5898;SDS011;2975;50.956;6.962;2022-12-07T17:11:51;6.87;;;4.17;;
5898;SDS011;2975;50.956;6.962;2022-12-07T17:14:16;9.67;;;5.00;;
5898;SDS011;2975;50.956;6.962;2022-12-07T17:17:01;9.43;;;5.00;;
5898;SDS011;2975;50.956;6.962;2022-12-07T17:19:26;8.23;;;5.00;;
5898;SDS011;2975;50.956;6.962;2022-12-07T17:21:52;9.57;;;5.63;;
5898;SDS011;2975;50.956;6.962;2022-12-07T17:24:17;11.37;;;5.57;;
5898;SDS011;2975;50.956;6.962;2022-12-07T17:26:44;10.60;;;5.60;;
5898;SDS011;2975;50.956;6.962;2022-12-07T17:29:11;9.98;;;7.18;;
5898;SDS011;2975;50.956;6.962;2022-12-07T17:31:38;14.80;;;6.67;;